Gotham, WI (53540)

11:03 PM CST die 19o January, anno 2018 (GMT -0600)
Gotham Suburbs | | Change Station

Elev 778 ft 43.23 °N, 90.27 °W | Updated 52 seconds ago

Serena
Serena
34.2 °F
Feels Like 34 °F
N
3.0
Ventus Variabilis Ventus from Inter Austrum et Zephyrum

Hodie
High -- | Low -- °F
--% Chance of Precip.
Yesterday
High -- | Low -- °F
Precip. -- in
Pressio 29.72 in
Visibilitas 9.0 milia passuum
Clouds Serena
Frigus Venti 34 °F
Frigus in quo Ros apparet 27 °F
Umor 75%
Rainfall 0.00 in
Snow Depth Not available.
7:27 AM 4:56 PM
Waxing Crescent, 9% visible
METAR KLNR 200456Z AUTO 25005KT 9SM CLR 02/M03 A2971 RMK AO2 SLP063 T00171028
Pressio 29.72 in
Visibilitas 9.0 milia passuum
Clouds Serena
Frigus Venti 34 °F
Frigus in quo Ros apparet 27 °F
Umor 75%
Rainfall 0.00 in
Snow Depth Not available.
7:27 AM 4:56 PM
Waxing Crescent, 9% visible
METAR KLNR 200456Z AUTO 25005KT 9SM CLR 02/M03 A2971 RMK AO2 SLP063 T00171028

Get Severe Weather Alerts

Thanks for signing up!

Be on the lookout for a verification email in your inbox.

You'll start receiving the daily forecast at 6 AM.

×

10-Day Weather Forecast

Almanac

Astronomy

Jan. 19, 2018 Rise Set
Actual Time
Civil Twilight
Nautical Twilight
Astronomical Twilight
Moon
Length Of Visible Light
Length of Day
Tomorrow will be .
, % of the Moon is Illuminated

Today's Extremes

State Highs State Lows

Community

WunderPhotos

Category 6

Welcome to Category 6. This is the collective home for Weather Underground's featured writeups by Dr. Jeff Masters (right), Bob Henson (left), Chris Burt, and other regular contributors.

Nearby

Air Quality

  Air Quality AQ Index Pollutant
Not available.

Snow Depth

Station Depth Elevation

Earthquake Activity

City Distance Mag. Time & Date
Minimum magnitude displayed is 2.5.

Coastal Water Temperatures

Locus Calor

Stations

Nearby Weather Stations

Station Location Temp Frigus Venti Frigus in quo Ros apparet Umor Ventus Precip. Elev Renovata Type
                   

Watches & Warnings

There are currently no watches in effect.